sensor_id;sensor_type;location;lat;lon;timestamp;temperature;humidity
802;DHT22;383;48.766;9.270;2023-08-30T00:00:24;14.50;99.90
802;DHT22;383;48.766;9.270;2023-08-30T00:02:51;14.60;99.90
802;DHT22;383;48.766;9.270;2023-08-30T00:05:18;14.60;99.90
802;DHT22;383;48.766;9.270;2023-08-30T00:07:44;14.70;99.90
802;DHT22;383;48.766;9.270;2023-08-30T00:10:12;14.70;99.90
802;DHT22;383;48.766;9.270;2023-08-30T00:12:39;14.70;99.90
802;DHT22;383;48.766;9.270;2023-08-30T00:15:07;14.70;99.90
802;DHT22;383;48.766;9.270;2023-08-30T00:17:34;14.70;99.90
802;DHT22;383;48.766;9.270;2023-08-30T00:20:01;14.80;99.90
802;DHT22;383;48.766;9.270;2023-08-30T00:22:29;14.80;99.90
802;DHT22;383;48.766;9.270;2023-08-30T00:24:56;14.80;99.90
802;DHT22;383;48.766;9.270;2023-08-30T00:27:24;14.90;99.90
802;DHT22;383;48.766;9.270;2023-08-30T00:29:51;14.90;99.90
802;DHT22;383;48.766;9.270;2023-08-30T00:32:18;14.90;99.90
802;DHT22;383;48.766;9.270;2023-08-30T00:34:45;14.90;99.90
802;DHT22;383;48.766;9.270;2023-08-30T00:37:11;14.90;99.90
802;DHT22;383;48.766;9.270;2023-08-30T00:39:38;14.90;99.90
802;DHT22;383;48.766;9.270;2023-08-30T00:42:05;14.90;99.90
802;DHT22;383;48.766;9.270;2023-08-30T00:44:34;14.90;99.90
802;DHT22;383;48.766;9.270;2023-08-30T00:47:02;14.90;99.90
802;DHT22;383;48.766;9.270;2023-08-30T00:49:29;14.90;99.90
802;DHT22;383;48.766;9.270;2023-08-30T00:51:56;14.90;99.90
802;DHT22;383;48.766;9.270;2023-08-30T00:54:23;14.90;99.90
802;DHT22;383;48.766;9.270;2023-08-30T00:56:50;14.90;99.90
802;DHT22;383;48.766;9.270;2023-08-30T00:59:18;14.90;99.90
802;DHT22;383;48.766;9.270;2023-08-30T01:01:46;14.90;99.90
802;DHT22;383;48.766;9.270;2023-08-30T01:04:13;14.90;99.90
802;DHT22;383;48.766;9.270;2023-08-30T01:06:41;14.80;99.90
802;DHT22;383;48.766;9.270;2023-08-30T01:09:08;14.80;99.90
802;DHT22;383;48.766;9.270;2023-08-30T01:11:39;14.90;99.90
802;DHT22;383;48.766;9.270;2023-08-30T01:14:13;14.90;99.90
802;DHT22;383;48.766;9.270;2023-08-30T01:16:42;14.90;99.90
802;DHT22;383;48.766;9.270;2023-08-30T01:19:25;14.80;99.90
802;DHT22;383;48.766;9.270;2023-08-30T01:21:58;14.80;99.90
802;DHT22;383;48.766;9.270;2023-08-30T01:24:34;14.70;99.90
802;DHT22;383;48.766;9.270;2023-08-30T01:27:08;14.70;99.90
802;DHT22;383;48.766;9.270;2023-08-30T01:29:36;14.70;99.90
802;DHT22;383;48.766;9.270;2023-08-30T01:32:04;14.70;99.90
802;DHT22;383;48.766;9.270;2023-08-30T01:34:31;14.70;99.90
802;DHT22;383;48.766;9.270;2023-08-30T01:36:59;14.70;99.90
802;DHT22;383;48.766;9.270;2023-08-30T01:39:26;14.70;99.90
802;DHT22;383;48.766;9.270;2023-08-30T01:41:54;14.70;99.90
802;DHT22;383;48.766;9.270;2023-08-30T01:44:26;14.70;99.90
802;DHT22;383;48.766;9.270;2023-08-30T01:46:54;14.60;99.90
802;DHT22;383;48.766;9.270;2023-08-30T01:49:22;14.60;99.90
802;DHT22;383;48.766;9.270;2023-08-30T01:51:50;14.60;99.90
802;DHT22;383;48.766;9.270;2023-08-30T01:54:19;14.60;99.90
802;DHT22;383;48.766;9.270;2023-08-30T01:56:46;14.60;99.90
802;DHT22;383;48.766;9.270;2023-08-30T01:59:13;14.60;99.90
802;DHT22;383;48.766;9.270;2023-08-30T02:01:41;14.60;99.90
802;DHT22;383;48.766;9.270;2023-08-30T02:04:08;14.60;99.90
802;DHT22;383;48.766;9.270;2023-08-30T02:06:39;14.50;99.90
802;DHT22;383;48.766;9.270;2023-08-30T02:09:23;14.50;99.90
802;DHT22;383;48.766;9.270;2023-08-30T02:11:51;14.50;99.90
802;DHT22;383;48.766;9.270;2023-08-30T02:14:20;14.50;99.90
802;DHT22;383;48.766;9.270;2023-08-30T02:16:49;14.40;99.90
802;DHT22;383;48.766;9.270;2023-08-30T02:19:16;14.40;99.90
802;DHT22;383;48.766;9.270;2023-08-30T02:21:46;14.40;99.90
802;DHT22;383;48.766;9.270;2023-08-30T02:24:13;14.40;99.90
802;DHT22;383;48.766;9.270;2023-08-30T02:26:40;14.40;99.90
802;DHT22;383;48.766;9.270;2023-08-30T02:29:06;14.40;99.90
802;DHT22;383;48.766;9.270;2023-08-30T02:31:33;14.40;99.90
802;DHT22;383;48.766;9.270;2023-08-30T02:34:01;14.40;99.90
802;DHT22;383;48.766;9.270;2023-08-30T02:36:28;14.40;99.90
802;DHT22;383;48.766;9.270;2023-08-30T02:38:55;14.40;99.90
802;DHT22;383;48.766;9.270;2023-08-30T02:41:22;14.30;99.90
802;DHT22;383;48.766;9.270;2023-08-30T02:43:49;14.30;99.90
802;DHT22;383;48.766;9.270;2023-08-30T02:46:15;14.30;99.90
802;DHT22;383;48.766;9.270;2023-08-30T02:48:42;14.40;99.90
802;DHT22;383;48.766;9.270;2023-08-30T02:51:10;14.40;99.90
802;DHT22;383;48.766;9.270;2023-08-30T02:53:37;14.30;99.90
802;DHT22;383;48.766;9.270;2023-08-30T02:56:03;14.40;99.90
802;DHT22;383;48.766;9.270;2023-08-30T02:58:30;14.40;99.90
802;DHT22;383;48.766;9.270;2023-08-30T03:00:57;14.40;99.90
802;DHT22;383;48.766;9.270;2023-08-30T03:03:23;14.40;99.90
802;DHT22;383;48.766;9.270;2023-08-30T03:05:50;14.40;99.90
802;DHT22;383;48.766;9.270;2023-08-30T03:08:18;14.30;99.90
802;DHT22;383;48.766;9.270;2023-08-30T03:10:45;14.30;99.90
802;DHT22;383;48.766;9.270;2023-08-30T03:13:11;14.40;99.90
802;DHT22;383;48.766;9.270;2023-08-30T03:15:38;14.40;99.90
802;DHT22;383;48.766;9.270;2023-08-30T03:18:05;14.40;99.90
802;DHT22;383;48.766;9.270;2023-08-30T03:20:32;14.40;99.90
802;DHT22;383;48.766;9.270;2023-08-30T03:22:58;14.40;99.90
802;DHT22;383;48.766;9.270;2023-08-30T03:25:28;14.40;99.90
802;DHT22;383;48.766;9.270;2023-08-30T03:27:55;14.40;99.90
802;DHT22;383;48.766;9.270;2023-08-30T03:30:22;14.40;99.90
802;DHT22;383;48.766;9.270;2023-08-30T03:32:49;14.40;99.90
802;DHT22;383;48.766;9.270;2023-08-30T03:35:16;14.30;99.90
802;DHT22;383;48.766;9.270;2023-08-30T03:37:42;14.30;99.90
802;DHT22;383;48.766;9.270;2023-08-30T03:40:10;14.40;99.90
802;DHT22;383;48.766;9.270;2023-08-30T03:42:38;14.30;99.90
802;DHT22;383;48.766;9.270;2023-08-30T03:45:07;14.40;99.90
802;DHT22;383;48.766;9.270;2023-08-30T03:47:33;14.40;99.90
802;DHT22;383;48.766;9.270;2023-08-30T03:50:00;14.40;99.90
802;DHT22;383;48.766;9.270;2023-08-30T03:52:27;14.40;99.90
802;DHT22;383;48.766;9.270;2023-08-30T03:54:54;14.40;99.90
802;DHT22;383;48.766;9.270;2023-08-30T03:57:21;14.40;99.90
802;DHT22;383;48.766;9.270;2023-08-30T03:59:49;14.40;99.90
802;DHT22;383;48.766;9.270;2023-08-30T04:02:16;14.40;99.90
802;DHT22;383;48.766;9.270;2023-08-30T04:04:42;14.40;99.90
802;DHT22;383;48.766;9.270;2023-08-30T04:07:09;14.40;99.90
802;DHT22;383;48.766;9.270;2023-08-30T04:09:36;14.40;99.90
802;DHT22;383;48.766;9.270;2023-08-30T04:12:03;14.40;99.90
802;DHT22;383;48.766;9.270;2023-08-30T04:14:30;14.50;99.90
802;DHT22;383;48.766;9.270;2023-08-30T04:16:58;14.50;99.90
802;DHT22;383;48.766;9.270;2023-08-30T04:19:25;14.50;99.90
802;DHT22;383;48.766;9.270;2023-08-30T04:21:51;14.50;99.90
802;DHT22;383;48.766;9.270;2023-08-30T04:24:18;14.60;99.90
802;DHT22;383;48.766;9.270;2023-08-30T04:26:45;14.60;99.90
802;DHT22;383;48.766;9.270;2023-08-30T04:29:15;14.60;99.90
802;DHT22;383;48.766;9.270;2023-08-30T04:31:43;14.60;99.90
802;DHT22;383;48.766;9.270;2023-08-30T04:34:11;14.60;99.90
802;DHT22;383;48.766;9.270;2023-08-30T04:36:37;14.60;99.90
802;DHT22;383;48.766;9.270;2023-08-30T04:39:04;14.60;99.90
802;DHT22;383;48.766;9.270;2023-08-30T04:41:31;14.70;99.90
802;DHT22;383;48.766;9.270;2023-08-30T04:43:59;14.60;99.90
802;DHT22;383;48.766;9.270;2023-08-30T04:46:25;14.60;99.90
802;DHT22;383;48.766;9.270;2023-08-30T04:48:52;14.60;99.90
802;DHT22;383;48.766;9.270;2023-08-30T04:51:20;14.60;99.90
802;DHT22;383;48.766;9.270;2023-08-30T04:53:47;14.60;99.90
802;DHT22;383;48.766;9.270;2023-08-30T04:56:14;14.60;99.90
802;DHT22;383;48.766;9.270;2023-08-30T04:58:43;14.70;99.90
802;DHT22;383;48.766;9.270;2023-08-30T05:01:10;14.70;99.90
802;DHT22;383;48.766;9.270;2023-08-30T05:03:38;14.70;99.90
802;DHT22;383;48.766;9.270;2023-08-30T05:06:05;14.70;99.90
802;DHT22;383;48.766;9.270;2023-08-30T05:08:33;14.70;99.90
802;DHT22;383;48.766;9.270;2023-08-30T05:11:00;14.70;99.90
802;DHT22;383;48.766;9.270;2023-08-30T05:13:28;14.80;99.90
802;DHT22;383;48.766;9.270;2023-08-30T05:15:58;14.80;99.90
802;DHT22;383;48.766;9.270;2023-08-30T05:18:24;14.80;99.90
802;DHT22;383;48.766;9.270;2023-08-30T05:20:51;14.80;99.90
802;DHT22;383;48.766;9.270;2023-08-30T05:23:18;14.80;99.90
802;DHT22;383;48.766;9.270;2023-08-30T05:25:46;14.80;99.90
802;DHT22;383;48.766;9.270;2023-08-30T05:28:12;14.80;99.90
802;DHT22;383;48.766;9.270;2023-08-30T05:30:42;14.90;99.90
802;DHT22;383;48.766;9.270;2023-08-30T05:33:09;14.90;99.90
802;DHT22;383;48.766;9.270;2023-08-30T05:35:35;14.90;99.90
802;DHT22;383;48.766;9.270;2023-08-30T05:38:02;15.00;99.90
802;DHT22;383;48.766;9.270;2023-08-30T05:40:30;15.00;99.90
802;DHT22;383;48.766;9.270;2023-08-30T05:42:58;15.00;99.90
802;DHT22;383;48.766;9.270;2023-08-30T05:45:25;15.10;99.90
802;DHT22;383;48.766;9.270;2023-08-30T05:47:51;15.10;99.90
802;DHT22;383;48.766;9.270;2023-08-30T05:50:18;15.20;99.90
802;DHT22;383;48.766;9.270;2023-08-30T05:52:45;15.20;99.90
802;DHT22;383;48.766;9.270;2023-08-30T05:55:11;15.20;99.90
802;DHT22;383;48.766;9.270;2023-08-30T05:57:38;15.30;99.90
802;DHT22;383;48.766;9.270;2023-08-30T06:00:07;15.40;99.90
802;DHT22;383;48.766;9.270;2023-08-30T06:02:35;15.40;99.90
802;DHT22;383;48.766;9.270;2023-08-30T06:05:01;15.40;99.90
802;DHT22;383;48.766;9.270;2023-08-30T06:07:28;15.40;99.90
802;DHT22;383;48.766;9.270;2023-08-30T06:09:55;15.50;99.90
802;DHT22;383;48.766;9.270;2023-08-30T06:12:22;15.50;99.90
802;DHT22;383;48.766;9.270;2023-08-30T06:14:49;15.60;99.90
802;DHT22;383;48.766;9.270;2023-08-30T06:17:19;15.60;99.90
802;DHT22;383;48.766;9.270;2023-08-30T06:19:46;15.60;99.90
802;DHT22;383;48.766;9.270;2023-08-30T06:22:13;15.60;99.90
802;DHT22;383;48.766;9.270;2023-08-30T06:24:40;15.70;99.90
802;DHT22;383;48.766;9.270;2023-08-30T06:27:06;15.70;99.90
802;DHT22;383;48.766;9.270;2023-08-30T06:29:33;15.70;99.90
802;DHT22;383;48.766;9.270;2023-08-30T06:32:00;15.70;99.90
802;DHT22;383;48.766;9.270;2023-08-30T06:34:28;15.80;99.90
802;DHT22;383;48.766;9.270;2023-08-30T06:36:54;15.70;99.90
802;DHT22;383;48.766;9.270;2023-08-30T06:39:21;15.80;99.90
802;DHT22;383;48.766;9.270;2023-08-30T06:41:48;15.80;99.90
802;DHT22;383;48.766;9.270;2023-08-30T06:44:14;15.90;99.90
802;DHT22;383;48.766;9.270;2023-08-30T06:46:42;15.90;99.90
802;DHT22;383;48.766;9.270;2023-08-30T06:49:09;16.00;99.90
802;DHT22;383;48.766;9.270;2023-08-30T06:51:38;16.00;99.90
802;DHT22;383;48.766;9.270;2023-08-30T06:54:05;16.10;99.90
802;DHT22;383;48.766;9.270;2023-08-30T06:56:31;16.10;99.90
802;DHT22;383;48.766;9.270;2023-08-30T06:58:58;16.10;99.90
802;DHT22;383;48.766;9.270;2023-08-30T07:01:25;16.20;99.90
802;DHT22;383;48.766;9.270;2023-08-30T07:03:52;16.30;99.60
802;DHT22;383;48.766;9.270;2023-08-30T07:06:21;16.30;99.10
802;DHT22;383;48.766;9.270;2023-08-30T07:08:49;16.30;99.00
802;DHT22;383;48.766;9.270;2023-08-30T07:11:16;16.30;99.20
802;DHT22;383;48.766;9.270;2023-08-30T07:13:42;16.40;98.30
802;DHT22;383;48.766;9.270;2023-08-30T07:16:10;16.40;98.00
802;DHT22;383;48.766;9.270;2023-08-30T07:18:37;16.50;98.00
802;DHT22;383;48.766;9.270;2023-08-30T07:21:05;16.50;97.90
802;DHT22;383;48.766;9.270;2023-08-30T07:23:32;16.50;98.20
802;DHT22;383;48.766;9.270;2023-08-30T07:26:00;16.60;98.40
802;DHT22;383;48.766;9.270;2023-08-30T07:28:26;16.60;98.20
802;DHT22;383;48.766;9.270;2023-08-30T07:31:02;16.70;98.00
802;DHT22;383;48.766;9.270;2023-08-30T07:33:28;16.80;97.80
802;DHT22;383;48.766;9.270;2023-08-30T07:35:55;16.80;97.70
802;DHT22;383;48.766;9.270;2023-08-30T07:38:22;16.80;96.30
802;DHT22;383;48.766;9.270;2023-08-30T07:40:49;16.90;96.70
802;DHT22;383;48.766;9.270;2023-08-30T07:43:17;16.90;97.10
802;DHT22;383;48.766;9.270;2023-08-30T07:45:44;16.90;96.70
802;DHT22;383;48.766;9.270;2023-08-30T07:48:10;16.90;97.20
802;DHT22;383;48.766;9.270;2023-08-30T07:50:37;16.90;97.30
802;DHT22;383;48.766;9.270;2023-08-30T07:53:04;16.90;96.30
802;DHT22;383;48.766;9.270;2023-08-30T07:55:30;16.90;95.70
802;DHT22;383;48.766;9.270;2023-08-30T07:57:57;16.90;96.40
802;DHT22;383;48.766;9.270;2023-08-30T08:00:25;16.80;96.10
802;DHT22;383;48.766;9.270;2023-08-30T08:02:52;16.80;96.20
802;DHT22;383;48.766;9.270;2023-08-30T08:05:18;16.80;96.80
802;DHT22;383;48.766;9.270;2023-08-30T08:07:45;16.80;96.90
802;DHT22;383;48.766;9.270;2023-08-30T08:10:12;16.80;96.80
802;DHT22;383;48.766;9.270;2023-08-30T08:12:38;16.90;97.30
802;DHT22;383;48.766;9.270;2023-08-30T08:15:06;17.00;97.50
802;DHT22;383;48.766;9.270;2023-08-30T08:17:34;17.10;97.20
802;DHT22;383;48.766;9.270;2023-08-30T08:20:01;17.10;97.00
802;DHT22;383;48.766;9.270;2023-08-30T08:22:27;17.10;96.70
802;DHT22;383;48.766;9.270;2023-08-30T08:24:55;17.20;95.80
802;DHT22;383;48.766;9.270;2023-08-30T08:27:22;17.30;96.20
802;DHT22;383;48.766;9.270;2023-08-30T08:29:51;17.30;96.10
802;DHT22;383;48.766;9.270;2023-08-30T08:32:17;17.50;95.70
802;DHT22;383;48.766;9.270;2023-08-30T08:34:45;17.60;95.40
802;DHT22;383;48.766;9.270;2023-08-30T08:37:12;17.70;94.90
802;DHT22;383;48.766;9.270;2023-08-30T08:39:40;17.90;94.60
802;DHT22;383;48.766;9.270;2023-08-30T08:42:08;18.00;92.30
802;DHT22;383;48.766;9.270;2023-08-30T08:44:36;18.00;92.70
802;DHT22;383;48.766;9.270;2023-08-30T08:47:03;18.00;93.00
802;DHT22;383;48.766;9.270;2023-08-30T08:49:30;17.90;92.30
802;DHT22;383;48.766;9.270;2023-08-30T08:51:59;18.00;93.00
802;DHT22;383;48.766;9.270;2023-08-30T08:54:26;18.10;93.00
802;DHT22;383;48.766;9.270;2023-08-30T08:56:53;18.20;92.10
802;DHT22;383;48.766;9.270;2023-08-30T08:59:21;18.30;92.10
802;DHT22;383;48.766;9.270;2023-08-30T09:01:48;18.40;92.10
802;DHT22;383;48.766;9.270;2023-08-30T09:04:15;18.50;91.90
802;DHT22;383;48.766;9.270;2023-08-30T09:06:42;18.50;91.30
802;DHT22;383;48.766;9.270;2023-08-30T09:09:11;18.60;91.90
802;DHT22;383;48.766;9.270;2023-08-30T09:11:38;18.60;91.70
802;DHT22;383;48.766;9.270;2023-08-30T09:14:05;18.70;91.20
802;DHT22;383;48.766;9.270;2023-08-30T09:16:31;18.60;90.10
802;DHT22;383;48.766;9.270;2023-08-30T09:18:59;18.70;90.10
802;DHT22;383;48.766;9.270;2023-08-30T09:21:26;18.70;90.20
802;DHT22;383;48.766;9.270;2023-08-30T09:24:00;18.70;89.40
802;DHT22;383;48.766;9.270;2023-08-30T09:26:29;18.70;90.30
802;DHT22;383;48.766;9.270;2023-08-30T09:29:01;18.70;90.50
802;DHT22;383;48.766;9.270;2023-08-30T09:31:33;18.80;90.60
802;DHT22;383;48.766;9.270;2023-08-30T09:33:59;18.90;90.30
802;DHT22;383;48.766;9.270;2023-08-30T09:36:32;18.90;90.20
802;DHT22;383;48.766;9.270;2023-08-30T09:38:59;19.10;90.30
802;DHT22;383;48.766;9.270;2023-08-30T09:41:25;19.20;89.70
802;DHT22;383;48.766;9.270;2023-08-30T09:43:54;19.30;87.20
802;DHT22;383;48.766;9.270;2023-08-30T09:46:21;19.50;88.10
802;DHT22;383;48.766;9.270;2023-08-30T09:48:49;19.50;85.30
802;DHT22;383;48.766;9.270;2023-08-30T09:51:17;19.60;88.00
802;DHT22;383;48.766;9.270;2023-08-30T09:53:48;19.80;86.70
802;DHT22;383;48.766;9.270;2023-08-30T09:56:15;20.00;86.40
802;DHT22;383;48.766;9.270;2023-08-30T09:58:43;20.10;87.70
802;DHT22;383;48.766;9.270;2023-08-30T10:01:12;20.20;85.50
802;DHT22;383;48.766;9.270;2023-08-30T10:03:39;20.20;84.90
802;DHT22;383;48.766;9.270;2023-08-30T10:06:07;20.30;83.10
802;DHT22;383;48.766;9.270;2023-08-30T10:08:34;20.40;82.60
802;DHT22;383;48.766;9.270;2023-08-30T10:11:04;20.50;81.40
802;DHT22;383;48.766;9.270;2023-08-30T10:13:33;20.60;83.50
802;DHT22;383;48.766;9.270;2023-08-30T10:16:02;20.60;80.80
802;DHT22;383;48.766;9.270;2023-08-30T10:18:33;20.50;81.60
802;DHT22;383;48.766;9.270;2023-08-30T10:21:03;20.50;82.40
802;DHT22;383;48.766;9.270;2023-08-30T10:23:31;20.60;80.40
802;DHT22;383;48.766;9.270;2023-08-30T10:25:59;20.60;82.00
802;DHT22;383;48.766;9.270;2023-08-30T10:28:27;20.80;81.50
802;DHT22;383;48.766;9.270;2023-08-30T10:30:54;20.90;78.50
802;DHT22;383;48.766;9.270;2023-08-30T10:33:21;20.80;79.40
802;DHT22;383;48.766;9.270;2023-08-30T10:35:52;20.80;78.30
802;DHT22;383;48.766;9.270;2023-08-30T10:38:28;20.90;79.50
802;DHT22;383;48.766;9.270;2023-08-30T10:40:55;20.90;78.90
802;DHT22;383;48.766;9.270;2023-08-30T10:43:29;21.00;79.30
802;DHT22;383;48.766;9.270;2023-08-30T10:46:01;21.20;79.30
802;DHT22;383;48.766;9.270;2023-08-30T10:48:35;21.40;79.40
802;DHT22;383;48.766;9.270;2023-08-30T10:51:05;21.50;80.70
802;DHT22;383;48.766;9.270;2023-08-30T10:53:32;21.60;75.30
802;DHT22;383;48.766;9.270;2023-08-30T10:56:03;21.60;77.30
802;DHT22;383;48.766;9.270;2023-08-30T10:58:39;21.60;77.40
802;DHT22;383;48.766;9.270;2023-08-30T11:01:07;21.60;75.70
802;DHT22;383;48.766;9.270;2023-08-30T11:03:35;21.70;76.70
802;DHT22;383;48.766;9.270;2023-08-30T11:06:03;21.70;76.70
802;DHT22;383;48.766;9.270;2023-08-30T11:08:30;21.80;74.80
802;DHT22;383;48.766;9.270;2023-08-30T11:11:04;21.80;74.50
802;DHT22;383;48.766;9.270;2023-08-30T11:13:31;21.80;75.60
802;DHT22;383;48.766;9.270;2023-08-30T11:16:01;22.00;73.00
802;DHT22;383;48.766;9.270;2023-08-30T11:18:29;22.20;73.80
802;DHT22;383;48.766;9.270;2023-08-30T11:20:59;22.30;73.80
802;DHT22;383;48.766;9.270;2023-08-30T11:23:27;22.30;75.20
802;DHT22;383;48.766;9.270;2023-08-30T11:25:54;22.50;73.00
802;DHT22;383;48.766;9.270;2023-08-30T11:28:24;22.60;73.00
802;DHT22;383;48.766;9.270;2023-08-30T11:30:53;22.60;69.60
802;DHT22;383;48.766;9.270;2023-08-30T11:33:20;22.70;70.40
802;DHT22;383;48.766;9.270;2023-08-30T11:35:49;22.60;69.70
802;DHT22;383;48.766;9.270;2023-08-30T11:38:17;22.70;72.40
802;DHT22;383;48.766;9.270;2023-08-30T11:40:45;22.70;69.30
802;DHT22;383;48.766;9.270;2023-08-30T11:43:15;22.80;68.80
802;DHT22;383;48.766;9.270;2023-08-30T11:45:42;22.90;70.30
802;DHT22;383;48.766;9.270;2023-08-30T11:48:09;23.00;69.30
802;DHT22;383;48.766;9.270;2023-08-30T11:50:35;23.00;69.10
802;DHT22;383;48.766;9.270;2023-08-30T11:53:02;23.10;70.80
802;DHT22;383;48.766;9.270;2023-08-30T11:55:29;23.20;72.50
802;DHT22;383;48.766;9.270;2023-08-30T11:57:58;23.30;71.60
802;DHT22;383;48.766;9.270;2023-08-30T12:00:25;23.30;68.70
802;DHT22;383;48.766;9.270;2023-08-30T12:02:51;23.10;67.60
802;DHT22;383;48.766;9.270;2023-08-30T12:05:18;22.80;68.70
802;DHT22;383;48.766;9.270;2023-08-30T12:07:49;22.50;66.70
802;DHT22;383;48.766;9.270;2023-08-30T12:10:18;22.00;68.20
802;DHT22;383;48.766;9.270;2023-08-30T12:12:45;21.80;68.20
802;DHT22;383;48.766;9.270;2023-08-30T12:15:14;21.30;69.30
802;DHT22;383;48.766;9.270;2023-08-30T12:17:41;20.80;68.70
802;DHT22;383;48.766;9.270;2023-08-30T12:20:15;20.40;73.00
802;DHT22;383;48.766;9.270;2023-08-30T12:22:43;20.10;71.70
802;DHT22;383;48.766;9.270;2023-08-30T12:25:19;19.80;75.30
802;DHT22;383;48.766;9.270;2023-08-30T12:27:47;19.50;81.10
802;DHT22;383;48.766;9.270;2023-08-30T12:30:15;19.10;83.70
802;DHT22;383;48.766;9.270;2023-08-30T12:32:43;18.80;83.50
802;DHT22;383;48.766;9.270;2023-08-30T12:35:10;18.60;87.80
802;DHT22;383;48.766;9.270;2023-08-30T12:37:36;18.50;90.10
802;DHT22;383;48.766;9.270;2023-08-30T12:40:04;18.40;91.40
802;DHT22;383;48.766;9.270;2023-08-30T12:42:31;18.50;90.20
802;DHT22;383;48.766;9.270;2023-08-30T12:44:58;18.50;90.30
802;DHT22;383;48.766;9.270;2023-08-30T12:47:26;18.40;90.90
802;DHT22;383;48.766;9.270;2023-08-30T12:49:52;18.50;91.60
802;DHT22;383;48.766;9.270;2023-08-30T12:52:19;18.40;91.60
802;DHT22;383;48.766;9.270;2023-08-30T12:54:46;18.40;91.40
802;DHT22;383;48.766;9.270;2023-08-30T12:57:13;18.40;91.30
802;DHT22;383;48.766;9.270;2023-08-30T12:59:40;18.50;91.30
802;DHT22;383;48.766;9.270;2023-08-30T13:02:06;18.50;92.50
802;DHT22;383;48.766;9.270;2023-08-30T13:04:35;18.60;93.20
802;DHT22;383;48.766;9.270;2023-08-30T13:07:04;18.70;93.50
802;DHT22;383;48.766;9.270;2023-08-30T13:09:30;18.80;92.90
802;DHT22;383;48.766;9.270;2023-08-30T13:11:57;19.00;90.60
802;DHT22;383;48.766;9.270;2023-08-30T13:14:24;19.10;90.40
802;DHT22;383;48.766;9.270;2023-08-30T13:16:50;19.30;87.70
802;DHT22;383;48.766;9.270;2023-08-30T13:19:17;19.40;87.80
802;DHT22;383;48.766;9.270;2023-08-30T13:21:45;19.40;85.70
802;DHT22;383;48.766;9.270;2023-08-30T13:24:12;19.50;88.00
802;DHT22;383;48.766;9.270;2023-08-30T13:26:38;19.70;87.80
802;DHT22;383;48.766;9.270;2023-08-30T13:29:05;19.80;85.10
802;DHT22;383;48.766;9.270;2023-08-30T13:31:33;19.90;85.50
802;DHT22;383;48.766;9.270;2023-08-30T13:33:59;20.10;86.30
802;DHT22;383;48.766;9.270;2023-08-30T13:36:26;20.30;82.60
802;DHT22;383;48.766;9.270;2023-08-30T13:38:54;20.40;84.10
802;DHT22;383;48.766;9.270;2023-08-30T13:41:21;20.50;85.20
802;DHT22;383;48.766;9.270;2023-08-30T13:43:47;20.60;84.70
802;DHT22;383;48.766;9.270;2023-08-30T13:46:14;20.80;84.00
802;DHT22;383;48.766;9.270;2023-08-30T13:48:41;20.90;82.30
802;DHT22;383;48.766;9.270;2023-08-30T13:51:08;21.00;79.80
802;DHT22;383;48.766;9.270;2023-08-30T13:53:34;21.00;80.80
802;DHT22;383;48.766;9.270;2023-08-30T13:56:03;21.00;80.70
802;DHT22;383;48.766;9.270;2023-08-30T13:58:29;21.00;80.30
802;DHT22;383;48.766;9.270;2023-08-30T14:00:56;21.20;80.80
802;DHT22;383;48.766;9.270;2023-08-30T14:03:23;21.30;81.90
802;DHT22;383;48.766;9.270;2023-08-30T14:05:49;21.60;80.80
802;DHT22;383;48.766;9.270;2023-08-30T14:08:17;21.70;75.30
802;DHT22;383;48.766;9.270;2023-08-30T14:10:44;21.80;75.40
802;DHT22;383;48.766;9.270;2023-08-30T14:13:12;22.00;75.20
802;DHT22;383;48.766;9.270;2023-08-30T14:15:38;22.10;74.50
802;DHT22;383;48.766;9.270;2023-08-30T14:18:05;22.30;71.60
802;DHT22;383;48.766;9.270;2023-08-30T14:20:32;22.40;71.10
802;DHT22;383;48.766;9.270;2023-08-30T14:22:59;22.40;73.00
802;DHT22;383;48.766;9.270;2023-08-30T14:25:25;22.30;71.90
802;DHT22;383;48.766;9.270;2023-08-30T14:27:52;22.40;73.80
802;DHT22;383;48.766;9.270;2023-08-30T14:30:22;22.40;75.60
802;DHT22;383;48.766;9.270;2023-08-30T14:32:48;22.40;75.00
802;DHT22;383;48.766;9.270;2023-08-30T14:35:15;22.40;73.40
802;DHT22;383;48.766;9.270;2023-08-30T14:37:42;22.30;72.50
802;DHT22;383;48.766;9.270;2023-08-30T14:40:09;22.30;74.60
802;DHT22;383;48.766;9.270;2023-08-30T14:42:35;22.30;74.90
802;DHT22;383;48.766;9.270;2023-08-30T14:45:03;22.30;74.40
802;DHT22;383;48.766;9.270;2023-08-30T14:47:32;22.30;74.80
802;DHT22;383;48.766;9.270;2023-08-30T14:49:59;22.30;75.80
802;DHT22;383;48.766;9.270;2023-08-30T14:52:26;22.20;76.10
802;DHT22;383;48.766;9.270;2023-08-30T14:54:53;22.10;76.20
802;DHT22;383;48.766;9.270;2023-08-30T14:57:20;22.00;75.60
802;DHT22;383;48.766;9.270;2023-08-30T14:59:47;21.80;74.60
802;DHT22;383;48.766;9.270;2023-08-30T15:02:13;21.70;75.70
802;DHT22;383;48.766;9.270;2023-08-30T15:04:42;21.50;74.10
802;DHT22;383;48.766;9.270;2023-08-30T15:07:08;21.40;75.70
802;DHT22;383;48.766;9.270;2023-08-30T15:09:36;21.30;78.30
802;DHT22;383;48.766;9.270;2023-08-30T15:12:05;21.20;79.70
802;DHT22;383;48.766;9.270;2023-08-30T15:14:32;21.00;82.70
802;DHT22;383;48.766;9.270;2023-08-30T15:16:59;20.90;83.70
802;DHT22;383;48.766;9.270;2023-08-30T15:19:26;20.70;84.00
802;DHT22;383;48.766;9.270;2023-08-30T15:21:54;20.60;82.40
802;DHT22;383;48.766;9.270;2023-08-30T15:24:20;20.60;81.00
802;DHT22;383;48.766;9.270;2023-08-30T15:26:47;20.60;83.40
802;DHT22;383;48.766;9.270;2023-08-30T15:29:14;20.60;83.50
802;DHT22;383;48.766;9.270;2023-08-30T15:31:41;20.60;81.10
802;DHT22;383;48.766;9.270;2023-08-30T15:34:08;20.70;80.30
802;DHT22;383;48.766;9.270;2023-08-30T15:36:35;20.70;78.70
802;DHT22;383;48.766;9.270;2023-08-30T15:39:03;20.80;78.70
802;DHT22;383;48.766;9.270;2023-08-30T15:41:29;20.90;78.50
802;DHT22;383;48.766;9.270;2023-08-30T15:43:56;21.00;78.90
802;DHT22;383;48.766;9.270;2023-08-30T15:46:24;21.20;78.20
802;DHT22;383;48.766;9.270;2023-08-30T15:48:50;21.30;76.60
802;DHT22;383;48.766;9.270;2023-08-30T15:51:18;21.50;76.20
802;DHT22;383;48.766;9.270;2023-08-30T15:53:45;21.50;77.70
802;DHT22;383;48.766;9.270;2023-08-30T15:56:13;21.60;75.60
802;DHT22;383;48.766;9.270;2023-08-30T15:58:40;21.60;74.00
802;DHT22;383;48.766;9.270;2023-08-30T16:01:07;21.60;71.60
802;DHT22;383;48.766;9.270;2023-08-30T16:03:33;21.60;71.70
802;DHT22;383;48.766;9.270;2023-08-30T16:06:02;21.60;71.10
802;DHT22;383;48.766;9.270;2023-08-30T16:08:29;21.60;72.10
802;DHT22;383;48.766;9.270;2023-08-30T16:10:56;21.70;73.40
802;DHT22;383;48.766;9.270;2023-08-30T16:13:24;21.70;74.50
802;DHT22;383;48.766;9.270;2023-08-30T16:15:51;21.80;71.60
802;DHT22;383;48.766;9.270;2023-08-30T16:18:18;21.70;72.60
802;DHT22;383;48.766;9.270;2023-08-30T16:20:48;21.60;74.20
802;DHT22;383;48.766;9.270;2023-08-30T16:23:14;21.50;75.70
802;DHT22;383;48.766;9.270;2023-08-30T16:25:41;21.50;78.70
802;DHT22;383;48.766;9.270;2023-08-30T16:28:08;21.50;78.90
802;DHT22;383;48.766;9.270;2023-08-30T16:30:36;21.40;79.50
802;DHT22;383;48.766;9.270;2023-08-30T16:33:03;21.40;80.20
802;DHT22;383;48.766;9.270;2023-08-30T16:35:30;21.30;79.80